Time;durP1;ratioP1;P1;durP2;ratioP2;P2;SDS_P1;SDS_P2;PMS_P1;PMS_P2;Temp;Humidity;BMP_temperature;BMP_pressure;BME280_temperature;BME280_humidity;BME280_pressure;Samples;Min_cycle;Max_cycle;Signal;HPM_P1;HPM_P2
2023/10/23 00:04:09;;;;;;;5.63;2.80;;;20.50;81.20;;;;;;10394576;27;20554;-40
2023/10/23 00:09:11;;;;;;;4.60;3.17;;;20.40;81.00;;;;;;10409029;27;20045;-34
2023/10/23 00:14:14;;;;;;;;;;;20.40;81.00;;;;;;10404816;27;20044;-34
2023/10/23 00:19:16;;;;;;;5.25;2.75;;;20.40;81.00;;;;;;10405794;27;19948;-34
2023/10/23 00:24:18;;;;;;;5.70;2.85;;;20.40;80.80;;;;;;10410589;27;20042;-31
2023/10/23 00:29:21;;;;;;;4.03;2.70;;;20.30;80.90;;;;;;10412239;27;20462;-41
2023/10/23 00:34:23;;;;;;;5.32;2.65;;;20.30;80.90;;;;;;10396415;27;20094;-32
2023/10/23 00:39:25;;;;;;;4.78;2.90;;;20.40;80.90;;;;;;10409590;27;20571;-34
2023/10/23 00:44:28;;;;;;;6.72;2.40;;;20.30;80.80;;;;;;10407347;27;20145;-37
2023/10/23 00:49:30;;;;;;;5.47;2.85;;;20.40;80.80;;;;;;10401554;27;20408;-31
2023/10/23 00:54:32;;;;;;;3.80;2.53;;;20.30;81.00;;;;;;10401766;27;20119;-37
2023/10/23 00:59:36;;;;;;;5.43;2.95;;;20.30;80.70;;;;;;10410894;27;20047;-33
2023/10/23 01:04:39;;;;;;;4.47;2.67;;;20.30;80.60;;;;;;10391054;27;20059;-38
2023/10/23 01:09:41;;;;;;;3.47;2.30;;;20.30;80.50;;;;;;10401210;27;20056;-30
2023/10/23 01:14:44;;;;;;;4.22;2.72;;;20.30;80.40;;;;;;10388523;27;20140;-37
2023/10/23 01:19:45;;;;;;;4.88;3.08;;;20.30;80.50;;;;;;10414277;27;20141;-34
2023/10/23 01:24:49;;;;;;;2.95;1.98;;;20.30;80.40;;;;;;10397938;27;20125;-39
2023/10/23 01:29:53;;;;;;;4.22;2.63;;;20.30;80.40;;;;;;10398322;27;20044;-43
2023/10/23 01:34:55;;;;;;;4.28;2.10;;;20.20;80.30;;;;;;10403753;27;20041;-37
2023/10/23 01:39:56;;;;;;;3.92;2.55;;;20.20;80.30;;;;;;10409945;27;20146;-37
2023/10/23 01:45:00;;;;;;;3.05;2.10;;;20.20;80.20;;;;;;10405168;27;20119;-35
2023/10/23 01:50:01;;;;;;;3.47;2.30;;;20.20;80.20;;;;;;10405434;27;20053;-34
2023/10/23 01:55:04;;;;;;;3.10;2.40;;;20.10;80.20;;;;;;10400003;28;20041;-34
2023/10/23 02:00:10;;;;;;;3.95;2.22;;;20.10;80.20;;;;;;10388143;27;20122;-34
2023/10/23 02:05:12;;;;;;;3.83;2.40;;;20.10;80.10;;;;;;10389353;27;20504;-35
2023/10/23 02:10:13;;;;;;;3.38;2.10;;;20.10;80.10;;;;;;10394657;28;20045;-38
2023/10/23 02:15:17;;;;;;;3.65;2.50;;;20.10;80.10;;;;;;10393140;27;20077;-37
2023/10/23 02:20:22;;;;;;;4.65;2.33;;;20.10;80.10;;;;;;10404121;28;20397;-34
2023/10/23 02:25:23;;;;;;;3.20;1.80;;;20.10;80.00;;;;;;10400459;27;20477;-36
2023/10/23 02:30:26;;;;;;;2.75;1.83;;;20.10;80.00;;;;;;10387161;28;20038;-38
2023/10/23 02:35:28;;;;;;;3.15;1.98;;;20.00;79.90;;;;;;10393097;27;20056;-31
2023/10/23 02:40:31;;;;;;;3.28;2.03;;;20.00;79.90;;;;;;10399699;27;20060;-33
2023/10/23 02:45:34;;;;;;;;;;;20.00;79.90;;;;;;10393579;27;20038;-32
2023/10/23 02:50:36;;;;;;;2.72;1.77;;;20.00;79.90;;;;;;10400291;27;19921;-33
2023/10/23 02:55:41;;;;;;;2.65;1.65;;;20.00;79.90;;;;;;10389083;28;20041;-34
2023/10/23 03:15:31;;;;;;;2.90;1.80;;;19.90;79.30;;;;;;10516306;27;20119;-32
2023/10/23 03:20:34;;;;;;;4.13;1.40;;;19.90;79.90;;;;;;10543689;28;20044;-33
2023/10/23 03:25:35;;;;;;;;;;;19.90;79.90;;;;;;10532137;28;20071;-36
2023/10/23 03:30:38;;;;;;;2.58;1.58;;;19.90;79.70;;;;;;10533847;28;19969;-42
2023/10/23 03:35:42;;;;;;;4.03;1.98;;;19.90;79.50;;;;;;10541063;28;20097;-39
2023/10/23 03:40:55;;;;;;;2.80;2.05;;;19.90;79.60;;;;;;10521820;28;20553;-37
2023/10/23 03:46:02;;;;;;;2.33;1.65;;;20.00;79.40;;;;;;10533543;28;20044;-34
2023/10/23 03:51:05;;;;;;;3.60;1.60;;;19.90;79.60;;;;;;10534628;28;20051;-33
2023/10/23 03:56:06;;;;;;;;;;;19.90;79.50;;;;;;10530161;28;20071;-40
2023/10/23 04:01:10;;;;;;;4.53;2.03;;;19.80;79.80;;;;;;10535650;28;19916;-32
2023/10/23 04:06:11;;;;;;;2.30;1.38;;;19.90;79.50;;;;;;10541489;28;20047;-41
2023/10/23 04:11:14;;;;;;;3.15;1.85;;;19.90;79.40;;;;;;10529303;28;20201;-36
2023/10/23 04:16:17;;;;;;;3.25;1.65;;;19.90;79.30;;;;;;10521331;28;20694;-33
2023/10/23 04:21:20;;;;;;;2.28;1.50;;;19.90;79.40;;;;;;10531035;28;20055;-35
2023/10/23 04:26:22;;;;;;;2.30;1.75;;;19.90;79.00;;;;;;10494089;28;20049;-38
2023/10/23 04:31:25;;;;;;;3.38;1.92;;;19.90;78.80;;;;;;10502569;28;20393;-31
2023/10/23 04:36:27;;;;;;;1.90;1.50;;;19.90;78.70;;;;;;10508242;28;20067;-42
2023/10/23 04:41:29;;;;;;;2.13;1.40;;;19.90;78.40;;;;;;10496958;28;20048;-32
2023/10/23 04:46:32;;;;;;;1.48;1.20;;;19.90;78.50;;;;;;10492094;28;20072;-32
2023/10/23 04:51:34;;;;;;;2.08;1.73;;;19.80;78.50;;;;;;10482031;28;20078;-31
2023/10/23 04:56:36;;;;;;;1.45;1.23;;;19.80;78.30;;;;;;10499643;28;20517;-32
2023/10/23 05:01:39;;;;;;;1.65;1.33;;;19.80;78.30;;;;;;10503412;28;20086;-36
2023/10/23 05:06:41;;;;;;;2.67;1.45;;;19.80;78.30;;;;;;10490370;28;20072;-33
2023/10/23 05:11:43;;;;;;;2.17;1.45;;;19.80;78.10;;;;;;10503369;28;20052;-32
2023/10/23 05:16:46;;;;;;;1.60;1.13;;;19.90;78.40;;;;;;10499311;28;20036;-46
2023/10/23 05:21:48;;;;;;;1.98;1.40;;;19.90;78.30;;;;;;10488244;28;20132;-35
2023/10/23 05:26:50;;;;;;;1.98;1.10;;;19.90;78.30;;;;;;10504144;28;20188;-33
2023/10/23 05:31:53;;;;;;;1.92;1.23;;;19.90;78.60;;;;;;10498471;28;20060;-37
2023/10/23 05:36:54;;;;;;;1.50;1.38;;;19.90;78.80;;;;;;10490204;28;20046;-33
2023/10/23 05:41:56;;;;;;;3.83;1.20;;;19.90;78.80;;;;;;10493346;28;20130;-37
2023/10/23 05:46:59;;;;;;;1.80;1.40;;;20.00;79.10;;;;;;10499387;28;20124;-32
2023/10/23 05:52:01;;;;;;;1.73;1.42;;;19.90;79.10;;;;;;10482325;28;20052;-33
2023/10/23 05:57:03;;;;;;;5.05;2.15;;;20.00;79.10;;;;;;10501840;28;20032;-48
2023/10/23 06:02:06;;;;;;;1.88;1.48;;;20.00;79.30;;;;;;10476361;28;20056;-34
2023/10/23 06:07:09;;;;;;;2.20;1.67;;;20.00;79.30;;;;;;10494325;28;20131;-38
2023/10/23 06:12:11;;;;;;;2.05;1.77;;;20.00;79.40;;;;;;10485767;28;20054;-39
2023/10/23 06:17:14;;;;;;;;;;;20.00;79.50;;;;;;10492434;28;20044;-42
2023/10/23 06:22:16;;;;;;;2.92;1.75;;;20.00;79.60;;;;;;10478732;28;19916;-39
2023/10/23 06:27:18;;;;;;;2.25;1.67;;;20.00;79.60;;;;;;10489342;28;20081;-34
2023/10/23 06:32:21;;;;;;;4.13;1.52;;;20.00;79.70;;;;;;10489627;28;20048;-33
2023/10/23 06:37:23;;;;;;;2.42;1.80;;;20.00;79.60;;;;;;10492127;28;20213;-35
2023/10/23 06:42:26;;;;;;;2.40;1.80;;;20.00;79.90;;;;;;10495829;28;20461;-38
2023/10/23 06:47:28;;;;;;;;;;;20.00;79.90;;;;;;10482860;28;20065;-32
2023/10/23 06:52:30;;;;;;;4.97;2.13;;;20.00;80.00;;;;;;10483898;28;20007;-31
2023/10/23 06:57:32;;;;;;;4.57;2.00;;;20.00;80.00;;;;;;10492713;28;20052;-36
2023/10/23 07:02:35;;;;;;;3.28;2.33;;;20.00;80.10;;;;;;10494210;28;20473;-37
2023/10/23 07:07:37;;;;;;;4.53;2.33;;;20.00;80.10;;;;;;10482230;28;20125;-36
2023/10/23 07:12:39;;;;;;;5.03;2.67;;;20.00;80.30;;;;;;10494549;28;20417;-43
2023/10/23 07:17:42;;;;;;;4.82;2.63;;;20.00;80.20;;;;;;10485698;28;20140;-34
2023/10/23 07:22:44;;;;;;;6.03;2.70;;;20.00;80.30;;;;;;10486035;28;20051;-36
2023/10/23 07:27:46;;;;;;;3.38;2.53;;;20.00;80.30;;;;;;10479347;28;20098;-34
2023/10/23 07:32:50;;;;;;;3.30;2.45;;;20.00;80.30;;;;;;10496953;28;20615;-45
2023/10/23 07:37:51;;;;;;;4.85;2.35;;;20.00;80.30;;;;;;10484728;28;20052;-35
2023/10/23 07:42:53;;;;;;;3.70;2.60;;;20.00;80.30;;;;;;10489029;28;20044;-38
2023/10/23 07:47:57;;;;;;;4.65;2.75;;;20.00;80.80;;;;;;10489913;28;20041;-35
2023/10/23 07:52:59;;;;;;;4.10;2.60;;;19.90;80.20;;;;;;10485250;28;20056;-33
2023/10/23 07:58:01;;;;;;;9.02;2.40;;;20.00;80.20;;;;;;10474001;28;20048;-31
2023/10/23 08:03:04;;;;;;;6.22;3.08;;;20.00;80.20;;;;;;10493003;28;20512;-37
2023/10/23 08:08:06;;;;;;;7.43;2.83;;;19.90;80.50;;;;;;10492086;28;20033;-34
2023/10/23 08:13:07;;;;;;;3.85;2.70;;;19.90;80.50;;;;;;10495845;28;20048;-34
2023/10/23 08:18:11;;;;;;;4.45;2.83;;;19.90;80.60;;;;;;10492454;28;20472;-35
2023/10/23 08:23:12;;;;;;;4.95;2.88;;;19.90;80.30;;;;;;10493343;28;20086;-40
2023/10/23 08:28:14;;;;;;;4.93;2.83;;;19.90;80.50;;;;;;10498356;28;20055;-36
2023/10/23 08:33:17;;;;;;;11.27;6.40;;;19.90;80.20;;;;;;10496087;28;20550;-47
2023/10/23 08:38:19;;;;;;;3.50;2.92;;;19.80;80.20;;;;;;10502955;28;20389;-32
2023/10/23 08:43:21;;;;;;;;;;;19.90;80.50;;;;;;10495160;28;20055;-37
2023/10/23 08:48:25;;;;;;;5.38;3.17;;;20.00;80.40;;;;;;10482325;28;20408;-34
2023/10/23 08:53:33;;;;;;;3.67;2.92;;;20.00;80.30;;;;;;10490946;28;20099;-35
2023/10/23 08:58:37;;;;;;;5.00;3.40;;;19.90;80.30;;;;;;10481795;28;20357;-42
2023/10/23 09:03:40;;;;;;;4.15;2.95;;;19.90;80.30;;;;;;10488979;28;20067;-38
2023/10/23 09:08:42;;;;;;;6.10;3.33;;;20.00;80.30;;;;;;10490052;28;20093;-36
2023/10/23 09:13:44;;;;;;;8.82;5.05;;;20.00;80.20;;;;;;10476919;28;20137;-35
2023/10/23 09:18:49;;;;;;;8.70;5.10;;;20.00;79.90;;;;;;10503540;28;20039;-35
2023/10/23 09:23:53;;;;;;;8.50;5.13;;;20.00;79.90;;;;;;10483460;28;20083;-39
2023/10/23 09:28:55;;;;;;;5.43;4.10;;;20.00;79.90;;;;;;10493798;28;20127;-35
2023/10/23 09:33:58;;;;;;;7.13;4.70;;;20.00;79.90;;;;;;10489210;28;20139;-37
2023/10/23 09:39:01;;;;;;;5.78;3.80;;;20.00;80.00;;;;;;10495728;28;20390;-35
2023/10/23 09:44:05;;;;;;;8.48;3.72;;;20.00;80.10;;;;;;10497756;28;20130;-33
2023/10/23 09:49:09;;;;;;;10.40;4.60;;;20.00;80.10;;;;;;10476497;28;20064;-41
2023/10/23 09:54:15;;;;;;;6.93;4.10;;;19.90;80.00;;;;;;10496203;28;20105;-30
2023/10/23 09:59:18;;;;;;;5.30;3.70;;;20.00;79.70;;;;;;10493715;28;20044;-37
2023/10/23 10:04:29;;;;;;;6.70;3.83;;;20.00;80.00;;;;;;10493968;28;20507;-32
2023/10/23 10:09:32;;;;;;;8.98;4.80;;;20.00;79.70;;;;;;10491178;28;20048;-30
2023/10/23 10:14:34;;;;;;;8.00;4.43;;;19.90;80.20;;;;;;10487578;28;20137;-37
2023/10/23 10:19:40;;;;;;;9.40;3.90;;;20.10;79.80;;;;;;10499293;28;20052;-39
2023/10/23 10:24:43;;;;;;;5.07;3.65;;;20.10;79.50;;;;;;10487994;28;20040;-34
2023/10/23 10:29:44;;;;;;;;;;;20.10;79.70;;;;;;10497295;28;20078;-36
2023/10/23 10:34:53;;;;;;;5.95;3.83;;;20.10;79.30;;;;;;10489017;28;19932;-37
2023/10/23 10:40:06;;;;;;;7.03;3.45;;;20.20;79.40;;;;;;10493169;28;20048;-41
2023/10/23 10:45:19;;;;;;;5.97;3.45;;;20.10;79.60;;;;;;10487889;28;20040;-35
2023/10/23 10:50:33;;;;;;;5.15;3.40;;;20.20;79.20;;;;;;10491482;28;20594;-36
2023/10/23 10:55:36;;;;;;;7.50;3.58;;;20.20;79.00;;;;;;10502044;28;20055;-33
2023/10/23 11:00:38;;;;;;;6.53;3.92;;;20.20;79.00;;;;;;10487774;28;20044;-32
2023/10/23 11:05:46;;;;;;;4.38;2.88;;;20.20;79.40;;;;;;10490700;28;20054;-41
2023/10/23 11:10:48;;;;;;;3.67;2.92;;;20.30;79.10;;;;;;10490101;28;20040;-33
2023/10/23 11:15:55;;;;;;;10.65;3.35;;;20.20;79.40;;;;;;10489059;28;20085;-33
2023/10/23 11:20:59;;;;;;;7.97;3.38;;;20.30;79.10;;;;;;10492687;28;20040;-35
2023/10/23 11:26:01;;;;;;;4.10;2.85;;;20.30;79.00;;;;;;10480536;28;20052;-34
2023/10/23 11:31:03;;;;;;;4.72;2.80;;;20.40;78.80;;;;;;10490748;28;20055;-38
2023/10/23 11:36:07;;;;;;;4.13;2.95;;;20.30;78.80;;;;;;10494719;28;20147;-31
2023/10/23 11:41:10;;;;;;;5.55;3.20;;;20.40;79.00;;;;;;10498353;28;20049;-31
2023/10/23 11:46:12;;;;;;;3.85;2.90;;;20.40;78.90;;;;;;10492230;28;20040;-44
2023/10/23 11:51:15;;;;;;;3.67;3.00;;;20.50;78.90;;;;;;10481894;28;20127;-48
2023/10/23 11:56:17;;;;;;;4.57;3.08;;;20.50;78.90;;;;;;10497457;28;20574;-34
2023/10/23 12:01:19;;;;;;;7.22;2.90;;;20.50;78.80;;;;;;10493493;28;20080;-38
2023/10/23 12:06:22;;;;;;;6.43;3.33;;;20.60;78.90;;;;;;10497680;28;20036;-32
2023/10/23 12:11:25;;;;;;;4.65;2.83;;;20.50;79.00;;;;;;10489871;28;20086;-36
2023/10/23 12:16:26;;;;;;;4.15;2.90;;;20.60;78.70;;;;;;10486254;28;20063;-42
2023/10/23 12:21:29;;;;;;;9.68;3.17;;;20.60;78.70;;;;;;10504187;28;20035;-35
2023/10/23 12:26:31;;;;;;;6.45;3.40;;;20.60;78.80;;;;;;10494259;28;20119;-33
2023/10/23 12:31:33;;;;;;;4.90;2.80;;;20.70;78.60;;;;;;10488452;28;20138;-38
2023/10/23 12:36:36;;;;;;;4.85;2.83;;;20.70;78.80;;;;;;10495421;28;20132;-32
2023/10/23 12:41:38;;;;;;;6.57;3.38;;;20.70;78.60;;;;;;10492388;28;20040;-31
2023/10/23 12:46:40;;;;;;;4.80;2.95;;;20.70;78.50;;;;;;10488856;28;20485;-37
2023/10/23 12:51:43;;;;;;;4.80;2.63;;;20.70;78.60;;;;;;10504852;28;21333;-36
2023/10/23 12:56:45;;;;;;;5.93;2.95;;;20.80;78.60;;;;;;10494383;28;20121;-29
2023/10/23 13:01:47;;;;;;;6.78;3.28;;;20.80;78.60;;;;;;10500174;28;20134;-36
2023/10/23 13:06:51;;;;;;;7.43;3.78;;;20.80;78.50;;;;;;10497025;28;20154;-32
2023/10/23 13:11:53;;;;;;;5.32;2.97;;;20.80;78.50;;;;;;10495496;28;20468;-32
2023/10/23 13:16:56;;;;;;;4.57;3.20;;;20.80;78.60;;;;;;10482923;28;20072;-34
2023/10/23 13:21:59;;;;;;;7.43;3.30;;;20.90;78.60;;;;;;10483517;28;20032;-31
2023/10/23 13:27:01;;;;;;;9.30;3.20;;;20.90;79.20;;;;;;10496998;28;20048;-38
2023/10/23 13:32:03;;;;;;;7.45;3.40;;;20.90;78.70;;;;;;10488526;28;20072;-34
2023/10/23 13:37:06;;;;;;;4.25;2.95;;;20.80;78.80;;;;;;10492988;28;20059;-31
2023/10/23 13:42:08;;;;;;;3.75;2.70;;;20.90;79.00;;;;;;10485768;28;20419;-31
2023/10/23 13:47:10;;;;;;;7.78;3.70;;;20.90;78.90;;;;;;10485964;28;20484;-35
2023/10/23 13:52:13;;;;;;;6.80;2.72;;;21.00;79.00;;;;;;10491536;28;20088;-35
2023/10/23 13:57:14;;;;;;;4.22;2.80;;;21.00;78.70;;;;;;10483211;28;20047;-32
2023/10/23 14:02:16;;;;;;;9.05;3.08;;;21.10;78.80;;;;;;10494892;28;20471;-36
2023/10/23 14:07:20;;;;;;;5.40;2.90;;;21.00;79.00;;;;;;10490094;28;20051;-36
2023/10/23 14:12:22;;;;;;;10.40;2.97;;;21.20;78.90;;;;;;10493389;28;20048;-41
2023/10/23 14:17:23;;;;;;;7.18;2.40;;;21.30;78.80;;;;;;10488652;28;20068;-39
2023/10/23 14:22:27;;;;;;;9.13;2.67;;;21.20;78.90;;;;;;10480098;28;20483;-36
2023/10/23 14:27:28;;;;;;;5.57;3.03;;;21.30;78.80;;;;;;10493039;28;20052;-32
2023/10/23 14:32:30;;;;;;;8.15;2.83;;;21.30;78.80;;;;;;10489459;28;20043;-33
2023/10/23 14:37:33;;;;;;;6.03;2.67;;;21.30;78.90;;;;;;10488676;28;20070;-49
2023/10/23 14:42:35;;;;;;;10.27;4.20;;;21.60;79.60;;;;;;10482549;28;20043;-37
2023/10/23 14:47:38;;;;;;;22.17;6.53;;;21.50;79.10;;;;;;10485439;28;20967;-34
2023/10/23 14:52:44;;;;;;;18.08;6.32;;;21.40;79.40;;;;;;10495210;28;20053;-32
2023/10/23 14:57:46;;;;;;;19.40;6.70;;;21.60;80.60;;;;;;10493312;28;20899;-33
2023/10/23 15:02:49;;;;;;;21.73;6.00;;;21.80;80.30;;;;;;10490510;28;20057;-36
2023/10/23 15:07:53;;;;;;;18.77;6.22;;;21.70;79.70;;;;;;10473923;28;20066;-31
2023/10/23 15:12:56;;;;;;;18.20;5.22;;;21.60;79.50;;;;;;10484305;28;20064;-38
2023/10/23 15:17:57;;;;;;;15.57;5.35;;;21.60;80.10;;;;;;10486216;28;20036;-40
2023/10/23 15:23:02;;;;;;;16.33;5.38;;;21.50;79.90;;;;;;10485390;28;20055;-33
2023/10/23 15:28:04;;;;;;;12.68;4.57;;;21.50;80.20;;;;;;10490373;28;20040;-38
2023/10/23 15:33:05;;;;;;;;;;;21.50;79.20;;;;;;10481887;28;20148;-31
2023/10/23 15:38:09;;;;;;;10.73;3.30;;;21.50;80.50;;;;;;10483742;28;19916;-41
2023/10/23 15:43:10;;;;;;;9.82;3.45;;;21.60;79.90;;;;;;10478732;28;20048;-36
2023/10/23 15:48:13;;;;;;;7.28;3.22;;;21.50;80.50;;;;;;10490799;28;20063;-34
2023/10/23 15:53:17;;;;;;;7.10;4.15;;;20.80;83.30;;;;;;10488034;28;20056;-34
2023/10/23 15:58:22;;;;;;;9.35;4.82;;;20.40;82.90;;;;;;10487786;28;20058;-38
2023/10/23 16:03:24;;;;;;;11.88;4.40;;;20.20;86.60;;;;;;10483816;28;20143;-39
2023/10/23 16:08:27;;;;;;;10.27;3.90;;;20.40;86.00;;;;;;10482819;28;20137;-39
2023/10/23 16:13:32;;;;;;;6.85;3.65;;;20.80;83.60;;;;;;10477109;28;20509;-34
2023/10/23 16:18:34;;;;;;;9.10;4.22;;;20.60;83.70;;;;;;10481789;28;20397;-34
2023/10/23 16:23:38;;;;;;;5.82;3.40;;;21.20;81.70;;;;;;10489817;28;20135;-33
2023/10/23 16:28:39;;;;;;;8.18;3.38;;;21.40;80.90;;;;;;10485345;28;20080;-36
2023/10/23 16:33:41;;;;;;;5.90;2.70;;;21.30;80.30;;;;;;10489547;28;20527;-42
2023/10/23 16:38:44;;;;;;;6.03;2.72;;;21.50;80.30;;;;;;10492955;28;20060;-30
2023/10/23 16:43:46;;;;;;;9.50;3.72;;;21.40;80.50;;;;;;10501282;28;20443;-40
2023/10/23 16:48:48;;;;;;;4.75;2.40;;;21.50;80.50;;;;;;10487073;28;20477;-34
2023/10/23 16:53:52;;;;;;;3.75;2.38;;;21.40;80.50;;;;;;10496829;28;20109;-31
2023/10/23 16:58:53;;;;;;;7.03;3.15;;;21.40;80.50;;;;;;10497232;28;20189;-33
2023/10/23 17:03:55;;;;;;;7.15;2.70;;;21.50;80.30;;;;;;10498151;28;20040;-32
2023/10/23 17:08:58;;;;;;;6.60;3.33;;;21.50;80.10;;;;;;10496338;28;20117;-38
2023/10/23 17:14:00;;;;;;;9.88;5.18;;;20.80;80.70;;;;;;10487350;28;20129;-32
2023/10/23 17:19:03;;;;;;;11.55;6.35;;;20.40;84.40;;;;;;10491990;28;20080;-33
2023/10/23 17:24:07;;;;;;;14.32;6.45;;;20.20;86.30;;;;;;10491293;28;20050;-34
2023/10/23 17:29:09;;;;;;;12.50;5.50;;;20.20;85.60;;;;;;10493578;28;20052;-35
2023/10/23 17:34:11;;;;;;;10.40;5.25;;;20.20;86.20;;;;;;10493168;28;20129;-32
2023/10/23 17:39:14;;;;;;;13.07;7.18;;;20.30;85.60;;;;;;10494809;28;21072;-36
2023/10/23 17:44:16;;;;;;;9.85;5.63;;;20.20;85.20;;;;;;10499709;28;20790;-41
2023/10/23 17:49:18;;;;;;;11.60;6.60;;;20.30;86.00;;;;;;10499812;28;20044;-39
2023/10/23 17:54:21;;;;;;;;;;;20.40;85.00;;;;;;10494679;28;20055;-34
2023/10/23 17:59:23;;;;;;;11.90;6.35;;;21.00;81.50;;;;;;10483928;28;20388;-40
2023/10/23 18:04:25;;;;;;;14.98;6.95;;;20.40;83.80;;;;;;10476021;28;20166;-36
2023/10/23 18:09:28;;;;;;;11.60;6.63;;;20.40;84.90;;;;;;10471520;28;20110;-32
2023/10/23 18:14:30;;;;;;;10.93;5.88;;;20.60;84.10;;;;;;10482007;28;20043;-33
2023/10/23 18:19:32;;;;;;;9.50;5.82;;;21.00;82.20;;;;;;10493913;28;20039;-33
2023/10/23 18:24:36;;;;;;;8.65;4.60;;;21.10;82.10;;;;;;10481756;28;20568;-32
2023/10/23 18:29:38;;;;;;;9.93;4.97;;;21.10;82.00;;;;;;10483226;28;20064;-31
2023/10/23 18:34:40;;;;;;;10.43;4.80;;;21.10;82.30;;;;;;10493720;28;20127;-47
2023/10/23 18:39:43;;;;;;;11.00;4.50;;;21.20;82.00;;;;;;10483379;28;20059;-38
2023/10/23 18:44:45;;;;;;;8.02;4.95;;;21.20;82.30;;;;;;10492324;28;20109;-34
2023/10/23 18:49:48;;;;;;;7.88;4.93;;;21.10;82.30;;;;;;10481608;28;20162;-38
2023/10/23 18:54:51;;;;;;;;;;;21.10;82.30;;;;;;10481494;28;20105;-34
2023/10/23 18:59:52;;;;;;;7.30;4.05;;;21.20;82.30;;;;;;10482897;28;19920;-34
2023/10/23 19:04:54;;;;;;;10.85;4.30;;;21.20;82.20;;;;;;10483748;28;20041;-51
2023/10/23 19:09:58;;;;;;;6.68;4.40;;;21.00;82.90;;;;;;10490195;28;20041;-40
2023/10/23 19:15:00;;;;;;;6.80;3.22;;;21.00;83.10;;;;;;10475771;28;20059;-45
2023/10/23 19:20:01;;;;;;;5.90;3.70;;;21.10;83.00;;;;;;10479547;28;20048;-36
2023/10/23 19:25:05;;;;;;;7.28;4.45;;;21.10;82.40;;;;;;10486957;28;20139;-36
2023/10/23 19:30:09;;;;;;;8.70;4.40;;;21.10;82.60;;;;;;10480261;28;20072;-43
2023/10/23 19:35:13;;;;;;;11.35;4.45;;;21.00;82.70;;;;;;10498142;28;20055;-45
2023/10/23 19:40:17;;;;;;;6.35;4.03;;;21.10;82.90;;;;;;10488692;28;20094;-39
2023/10/23 19:45:20;;;;;;;11.25;4.32;;;20.90;83.70;;;;;;10489959;28;20394;-39
2023/10/23 19:50:23;;;;;;;11.57;4.25;;;21.00;83.40;;;;;;10485861;28;20044;-39
2023/10/23 19:55:27;;;;;;;11.05;4.70;;;20.90;83.80;;;;;;10483266;28;20393;-41
2023/10/23 20:00:29;;;;;;;12.68;4.00;;;20.90;83.70;;;;;;10500906;28;20071;-31
2023/10/23 20:05:31;;;;;;;9.77;4.25;;;20.90;83.60;;;;;;10502541;28;20914;-39
2023/10/23 20:10:36;;;;;;;8.27;4.78;;;20.90;83.30;;;;;;10503340;28;20048;-39
2023/10/23 20:15:38;;;;;;;12.30;5.55;;;21.00;82.90;;;;;;10492854;28;20521;-32
2023/10/23 20:20:39;;;;;;;10.65;5.05;;;20.90;83.20;;;;;;10502176;28;20472;-41
2023/10/23 20:25:43;;;;;;;10.25;5.30;;;20.90;83.20;;;;;;10499471;28;20361;-41
2023/10/23 20:30:44;;;;;;;15.43;6.82;;;21.00;83.60;;;;;;10500828;28;20135;-33
2023/10/23 20:35:46;;;;;;;16.40;8.13;;;20.90;83.20;;;;;;10490102;28;20098;-42
2023/10/23 20:40:50;;;;;;;18.55;8.35;;;20.80;83.20;;;;;;10503699;28;20225;-34
2023/10/23 20:45:52;;;;;;;15.95;6.85;;;20.70;83.70;;;;;;10486814;28;20127;-35
2023/10/23 20:50:54;;;;;;;14.93;6.68;;;20.90;83.40;;;;;;10499583;28;20511;-38
2023/10/23 20:55:58;;;;;;;13.07;6.88;;;20.80;83.10;;;;;;10502848;28;20579;-38
2023/10/23 21:01:05;;;;;;;14.27;6.82;;;20.80;83.20;;;;;;10490963;28;20041;-31
2023/10/23 21:06:07;;;;;;;10.38;6.15;;;20.70;83.70;;;;;;10498332;28;20522;-31
2023/10/23 21:11:10;;;;;;;11.38;6.15;;;20.50;84.70;;;;;;10506400;28;20043;-37
2023/10/23 21:16:12;;;;;;;13.88;5.22;;;20.70;84.00;;;;;;10493687;28;20090;-40
2023/10/23 21:21:13;;;;;;;19.48;6.15;;;20.80;83.30;;;;;;10502134;28;20044;-34
2023/10/23 21:26:17;;;;;;;13.82;6.03;;;20.80;83.20;;;;;;10500328;28;20045;-36
2023/10/23 21:31:19;;;;;;;10.07;5.70;;;20.80;83.00;;;;;;10489504;28;20323;-34
2023/10/23 21:36:20;;;;;;;14.25;6.43;;;20.70;83.70;;;;;;10504762;28;20052;-32
2023/10/23 21:41:24;;;;;;;12.93;6.15;;;20.80;83.30;;;;;;10501857;28;20088;-37
2023/10/23 21:46:26;;;;;;;12.63;5.93;;;20.70;83.40;;;;;;10470265;28;20043;-43
2023/10/23 21:51:28;;;;;;;11.55;5.43;;;20.70;83.40;;;;;;10493852;28;20077;-38
2023/10/23 21:56:32;;;;;;;11.10;5.35;;;20.80;83.00;;;;;;10494392;28;20052;-39
2023/10/23 22:01:35;;;;;;;11.73;5.45;;;20.60;84.00;;;;;;10492294;28;20129;-28
2023/10/23 22:06:37;;;;;;;11.70;5.75;;;20.60;83.90;;;;;;10480488;28;20114;-43
2023/10/23 22:11:41;;;;;;;14.05;5.38;;;20.50;83.20;;;;;;10493088;28;20048;-39
2023/10/23 22:16:43;;;;;;;10.20;5.10;;;20.60;83.60;;;;;;10500257;28;20140;-32
2023/10/23 22:21:45;;;;;;;10.35;4.45;;;20.60;83.50;;;;;;10491809;28;20047;-32
2023/10/23 22:26:48;;;;;;;10.93;4.47;;;20.70;83.30;;;;;;10490222;28;20178;-48
2023/10/23 22:31:50;;;;;;;18.05;6.38;;;20.70;83.10;;;;;;10502877;28;20068;-32
2023/10/23 22:36:52;;;;;;;7.50;4.32;;;20.60;83.30;;;;;;10496414;28;20085;-33
2023/10/23 22:41:55;;;;;;;6.57;3.95;;;20.60;83.00;;;;;;10488829;28;20126;-38
2023/10/23 22:46:59;;;;;;;7.00;4.20;;;20.60;82.90;;;;;;10493434;28;20043;-40
2023/10/23 22:52:03;;;;;;;8.63;4.75;;;20.50;83.30;;;;;;10499423;28;20048;-41
2023/10/23 22:57:08;;;;;;;8.57;4.90;;;20.60;82.80;;;;;;10492151;28;20047;-35
2023/10/23 23:02:10;;;;;;;7.93;4.50;;;20.60;82.90;;;;;;10500236;28;20059;-34
2023/10/23 23:07:12;;;;;;;6.15;4.68;;;20.60;82.60;;;;;;10493136;28;20046;-41
2023/10/23 23:12:16;;;;;;;7.72;4.15;;;20.40;83.50;;;;;;10496293;28;20056;-34
2023/10/23 23:17:22;;;;;;;5.72;3.90;;;20.60;82.90;;;;;;10489077;28;20080;-33
2023/10/23 23:22:24;;;;;;;8.93;3.95;;;20.70;82.60;;;;;;10494836;28;20408;-32
2023/10/23 23:27:27;;;;;;;7.10;3.90;;;20.60;82.70;;;;;;10494960;28;20076;-39
2023/10/23 23:32:29;;;;;;;7.78;3.47;;;20.50;82.50;;;;;;10495242;28;20810;-32
2023/10/23 23:37:31;;;;;;;4.97;3.97;;;20.60;82.40;;;;;;10502601;28;20048;-35
2023/10/23 23:42:34;;;;;;;5.88;4.00;;;20.60;82.40;;;;;;10504642;28;20070;-41
2023/10/23 23:47:36;;;;;;;8.77;3.80;;;20.60;82.20;;;;;;10496328;28;20061;-37
2023/10/23 23:52:38;;;;;;;5.60;3.85;;;20.60;82.10;;;;;;10499089;28;20661;-36
2023/10/23 23:57:41;;;;;;;7.35;3.78;;;20.60;82.10;;;;;;10503002;28;20101;-40
